createdAt,value
2019-03-12T00:00:36.561Z,996.12
2019-03-12T00:01:36.689Z,996.15
2019-03-12T00:02:36.811Z,996.12
2019-03-12T00:03:36.939Z,996.16
2019-03-12T00:04:37.058Z,996.19
2019-03-12T00:05:37.202Z,996.21
2019-03-12T00:06:37.315Z,996.20
2019-03-12T00:07:37.457Z,996.19
2019-03-12T00:08:37.595Z,996.19
2019-03-12T00:09:37.706Z,996.25
2019-03-12T00:10:37.834Z,996.22
2019-03-12T00:11:37.956Z,996.23
2019-03-12T00:12:38.089Z,996.22
2019-03-12T00:13:38.209Z,996.25
2019-03-12T00:14:38.329Z,996.28
2019-03-12T00:15:38.453Z,996.32
2019-03-12T00:16:38.573Z,996.34
2019-03-12T00:17:38.700Z,996.34
2019-03-12T00:18:38.825Z,996.35
2019-03-12T00:19:38.962Z,996.38
2019-03-12T00:20:39.079Z,996.36
2019-03-12T00:21:39.207Z,996.34
2019-03-12T00:22:39.341Z,996.41
2019-03-12T00:23:39.468Z,996.40
2019-03-12T00:24:39.590Z,996.37
2019-03-12T00:25:39.721Z,996.39
2019-03-12T00:26:39.850Z,996.39
2019-03-12T00:27:39.973Z,996.43
2019-03-12T00:28:40.097Z,996.42
2019-03-12T00:29:40.230Z,996.46
2019-03-12T00:30:40.352Z,996.43
2019-03-12T00:31:40.476Z,996.52
2019-03-12T00:32:40.601Z,996.53
2019-03-12T00:33:40.728Z,996.48
2019-03-12T00:34:40.854Z,996.51
2019-03-12T00:35:40.977Z,996.56
2019-03-12T00:36:41.104Z,996.53
2019-03-12T00:37:41.232Z,996.53
2019-03-12T00:38:41.354Z,996.48
2019-03-12T00:39:41.484Z,996.48
2019-03-12T00:40:41.610Z,996.47
2019-03-12T00:41:41.743Z,996.43
2019-03-12T00:42:41.873Z,996.47
2019-03-12T00:43:41.992Z,996.50
2019-03-12T00:44:42.114Z,996.52
2019-03-12T00:45:42.247Z,996.57
2019-03-12T00:46:42.373Z,996.54
2019-03-12T00:47:42.497Z,996.51
2019-03-12T00:48:42.624Z,996.53
2019-03-12T00:49:42.753Z,996.54
2019-03-12T00:50:42.875Z,996.54
2019-03-12T00:51:42.994Z,996.51
2019-03-12T00:52:43.148Z,996.52
2019-03-12T00:53:43.270Z,996.49
2019-03-12T00:54:43.393Z,996.53
2019-03-12T00:55:43.516Z,996.51
2019-03-12T00:56:43.667Z,996.48
2019-03-12T00:57:43.785Z,996.48
2019-03-12T00:58:43.906Z,996.48
2019-03-12T00:59:44.031Z,996.45
2019-03-12T01:00:44.169Z,996.50
2019-03-12T01:01:44.293Z,996.54
2019-03-12T01:02:44.421Z,996.54
2019-03-12T01:03:44.540Z,996.52
2019-03-12T01:04:44.663Z,996.51
2019-03-12T01:05:44.789Z,996.54
2019-03-12T01:06:44.918Z,996.63
2019-03-12T01:07:45.097Z,996.63
2019-03-12T01:08:45.171Z,996.64
2019-03-12T01:09:45.318Z,996.65
2019-03-12T01:10:45.444Z,996.67
2019-03-12T01:11:45.560Z,996.71
2019-03-12T01:12:45.689Z,996.77
2019-03-12T01:13:45.836Z,996.69
2019-03-12T01:14:45.953Z,996.75
2019-03-12T01:15:46.077Z,996.75
2019-03-12T01:16:46.198Z,996.75
2019-03-12T01:17:46.334Z,996.76
2019-03-12T01:18:46.451Z,996.81
2019-03-12T01:19:46.585Z,996.82
2019-03-12T01:20:46.826Z,996.81
2019-03-12T01:21:46.865Z,996.84
2019-03-12T01:22:46.979Z,996.81
2019-03-12T01:23:47.105Z,996.78
2019-03-12T01:24:47.231Z,996.78
2019-03-12T01:25:47.358Z,996.79
2019-03-12T01:26:47.481Z,996.76
2019-03-12T01:27:47.608Z,996.76
2019-03-12T01:28:47.739Z,996.79
2019-03-12T01:29:47.861Z,996.79
2019-03-12T01:30:47.985Z,996.84
2019-03-12T01:31:48.175Z,996.86
2019-03-12T01:32:48.291Z,996.82
2019-03-12T01:33:48.421Z,996.86
2019-03-12T01:34:48.543Z,996.84
2019-03-12T01:35:48.711Z,996.90
2019-03-12T01:36:48.808Z,996.88
2019-03-12T01:37:48.930Z,996.94
2019-03-12T01:38:49.060Z,996.95
2019-03-12T01:39:49.188Z,996.99
2019-03-12T01:40:49.313Z,997.00
2019-03-12T01:41:49.438Z,996.95
2019-03-12T01:42:52.377Z,997.01
2019-03-12T01:43:49.700Z,997.01
2019-03-12T01:44:49.820Z,996.99
2019-03-12T01:45:49.960Z,996.97
2019-03-12T01:46:50.085Z,997.05
2019-03-12T01:47:50.229Z,997.03
2019-03-12T01:48:50.342Z,997.06
2019-03-12T01:49:50.468Z,997.09
2019-03-12T01:50:50.605Z,997.11
2019-03-12T01:51:50.737Z,997.07
2019-03-12T01:52:50.859Z,997.11
2019-03-12T01:53:50.983Z,997.11
2019-03-12T01:54:51.112Z,997.12
2019-03-12T01:55:51.283Z,997.09
2019-03-12T01:56:51.379Z,997.14
2019-03-12T01:57:51.572Z,997.10
2019-03-12T01:58:51.638Z,997.10
2019-03-12T01:59:51.767Z,997.11
2019-03-12T02:00:51.885Z,997.09
2019-03-12T02:01:52.013Z,997.06
2019-03-12T02:02:52.143Z,997.07
2019-03-12T02:03:52.281Z,997.10
2019-03-12T02:04:52.415Z,997.04
2019-03-12T02:05:52.535Z,997.03
2019-03-12T02:06:52.682Z,996.99
2019-03-12T02:07:52.798Z,996.96
2019-03-12T02:08:52.924Z,996.96
2019-03-12T02:09:53.053Z,996.98
2019-03-12T02:10:53.180Z,996.97
2019-03-12T02:11:53.303Z,996.95
2019-03-12T02:12:53.424Z,996.99
2019-03-12T02:13:53.551Z,997.00
2019-03-12T02:14:53.711Z,996.97
2019-03-12T02:15:53.815Z,996.98
2019-03-12T02:16:53.936Z,996.94
2019-03-12T02:17:54.066Z,996.91
2019-03-12T02:18:54.192Z,996.94
2019-03-12T02:19:54.324Z,996.89
2019-03-12T02:20:54.458Z,996.87
2019-03-12T02:21:54.585Z,996.84
2019-03-12T02:22:54.700Z,996.87
2019-03-12T02:23:54.827Z,996.85
2019-03-12T02:24:54.944Z,996.77
2019-03-12T02:25:55.092Z,996.75
2019-03-12T02:26:55.195Z,996.76
2019-03-12T02:27:55.324Z,996.78
2019-03-12T02:28:55.459Z,996.77
2019-03-12T02:29:55.601Z,996.69
2019-03-12T02:30:55.730Z,996.69
2019-03-12T02:31:55.858Z,996.73
2019-03-12T02:32:55.972Z,996.81
2019-03-12T02:33:56.107Z,996.81
2019-03-12T02:34:56.221Z,996.84
2019-03-12T02:35:56.345Z,996.91
2019-03-12T02:36:56.475Z,996.97
2019-03-12T02:37:56.613Z,996.93
2019-03-12T02:38:56.719Z,996.96
2019-03-12T02:39:56.840Z,996.97
2019-03-12T02:40:56.964Z,996.95
2019-03-12T02:41:57.111Z,996.94
2019-03-12T02:42:57.234Z,996.92
2019-03-12T02:43:57.363Z,996.95
2019-03-12T02:44:57.498Z,996.95
2019-03-12T02:45:57.611Z,996.99
2019-03-12T02:46:57.769Z,996.98
2019-03-12T02:47:57.870Z,996.99
2019-03-12T02:48:57.987Z,996.99
2019-03-12T02:49:58.135Z,996.98
2019-03-12T02:50:58.255Z,996.97
2019-03-12T02:51:58.376Z,996.96
2019-03-12T02:52:58.542Z,996.96
2019-03-12T02:53:58.625Z,996.94
2019-03-12T02:54:58.755Z,996.91
2019-03-12T02:56:01.810Z,996.89
2019-03-12T02:56:59.014Z,996.87
2019-03-12T02:57:59.134Z,996.90
2019-03-12T02:58:59.266Z,996.83
2019-03-12T02:59:59.381Z,996.82
2019-03-12T03:00:59.691Z,996.82
2019-03-12T03:01:59.639Z,996.83
2019-03-12T03:02:59.761Z,996.84
2019-03-12T03:03:59.896Z,996.84
2019-03-12T03:05:00.015Z,996.82
2019-03-12T03:06:00.139Z,996.82
2019-03-12T03:07:00.279Z,996.80
2019-03-12T03:08:00.403Z,996.78
2019-03-12T03:09:00.549Z,996.81
2019-03-12T03:10:00.746Z,996.79
2019-03-12T03:11:00.790Z,996.77
2019-03-12T03:12:00.911Z,996.75
2019-03-12T03:13:01.046Z,996.69
2019-03-12T03:14:01.163Z,996.67
2019-03-12T03:15:01.360Z,996.68
2019-03-12T03:16:01.427Z,996.69
2019-03-12T03:17:01.541Z,996.61
2019-03-12T03:18:01.692Z,996.61
2019-03-12T03:19:01.807Z,996.57
2019-03-12T03:20:01.934Z,996.56
2019-03-12T03:21:02.058Z,996.59
2019-03-12T03:22:02.216Z,996.62
2019-03-12T03:23:02.329Z,996.61
2019-03-12T03:24:02.457Z,996.66
2019-03-12T03:25:02.581Z,996.67
2019-03-12T03:26:02.718Z,996.69
2019-03-12T03:27:02.831Z,996.62
2019-03-12T03:28:02.957Z,996.65
2019-03-12T03:29:03.088Z,996.66
2019-03-12T03:30:03.264Z,996.68
2019-03-12T03:31:03.680Z,996.70
2019-03-12T03:32:03.551Z,996.76
2019-03-12T03:33:03.626Z,996.74
2019-03-12T03:34:03.762Z,996.73
2019-03-12T03:35:03.891Z,996.73
2019-03-12T03:36:04.003Z,996.76
2019-03-12T03:37:04.130Z,996.82
2019-03-12T03:38:04.277Z,996.74
2019-03-12T03:39:04.492Z,996.79
2019-03-12T03:40:04.502Z,996.78
2019-03-12T03:41:04.635Z,996.70
2019-03-12T03:42:04.835Z,996.81
2019-03-12T03:43:04.896Z,996.83
2019-03-12T03:44:05.028Z,996.94
2019-03-12T03:45:05.144Z,996.93
2019-03-12T03:46:05.283Z,997.01
2019-03-12T03:47:05.403Z,997.02
2019-03-12T03:48:05.537Z,997.01
2019-03-12T03:49:05.638Z,997.05
2019-03-12T03:50:05.805Z,997.05
2019-03-12T03:51:05.924Z,997.03
2019-03-12T03:52:06.047Z,997.03
2019-03-12T03:53:06.169Z,997.00
2019-03-12T03:54:06.307Z,996.97
2019-03-12T03:55:06.436Z,996.94
2019-03-12T03:56:06.560Z,996.96
2019-03-12T03:57:06.697Z,997.01
2019-03-12T03:58:06.820Z,996.97
2019-03-12T03:59:06.946Z,996.95
2019-03-12T04:00:07.092Z,996.95
2019-03-12T04:01:07.224Z,996.92
2019-03-12T04:02:07.332Z,996.92
2019-03-12T04:03:07.473Z,996.94
2019-03-12T04:04:07.609Z,996.94
2019-03-12T04:05:07.726Z,996.90
2019-03-12T04:06:07.872Z,996.88
2019-03-12T04:07:07.991Z,996.88
2019-03-12T04:08:08.114Z,996.81
2019-03-12T04:09:08.256Z,996.83
2019-03-12T04:10:08.379Z,996.72
2019-03-12T04:11:08.502Z,996.77
2019-03-12T04:12:08.629Z,996.81
2019-03-12T04:13:08.776Z,996.78
2019-03-12T04:14:08.892Z,996.74
2019-03-12T04:15:09.039Z,996.80
2019-03-12T04:16:09.150Z,996.77
2019-03-12T04:17:09.274Z,996.82
2019-03-12T04:18:09.417Z,996.82
2019-03-12T04:19:09.541Z,996.82
2019-03-12T04:20:09.662Z,996.76
2019-03-12T04:21:09.848Z,996.81
2019-03-12T04:22:09.935Z,996.76
2019-03-12T04:23:10.054Z,996.74
2019-03-12T04:24:10.174Z,996.73
2019-03-12T04:25:10.324Z,996.74
2019-03-12T04:26:10.444Z,996.77
2019-03-12T04:27:10.566Z,996.79
2019-03-12T04:28:10.704Z,996.80
2019-03-12T04:29:10.829Z,996.77
2019-03-12T04:30:10.953Z,996.85
2019-03-12T04:31:11.075Z,996.82
2019-03-12T04:32:11.197Z,996.85
2019-03-12T04:33:11.319Z,996.85
2019-03-12T04:34:11.460Z,996.84
2019-03-12T04:35:11.564Z,996.79
2019-03-12T04:36:11.689Z,996.84
2019-03-12T04:37:11.817Z,996.86
2019-03-12T04:38:12.045Z,996.80
2019-03-12T04:39:12.066Z,996.84
2019-03-12T04:40:12.185Z,996.86
2019-03-12T04:41:12.307Z,996.80
2019-03-12T04:42:12.443Z,996.84
2019-03-12T04:43:12.569Z,996.89
2019-03-12T04:44:12.690Z,996.87
2019-03-12T04:45:12.813Z,996.84
2019-03-12T04:46:12.942Z,996.84
2019-03-12T04:47:13.077Z,996.81
2019-03-12T04:48:13.198Z,996.84
2019-03-12T04:49:13.317Z,996.83
2019-03-12T04:50:13.452Z,996.75
2019-03-12T04:51:13.563Z,996.79
2019-03-12T04:52:13.684Z,996.81
2019-03-12T04:53:13.883Z,996.79
2019-03-12T04:54:13.941Z,996.77
2019-03-12T04:55:14.067Z,996.76
2019-03-12T04:56:14.186Z,996.77
2019-03-12T04:57:14.299Z,996.77
2019-03-12T04:58:14.437Z,996.73
2019-03-12T04:59:14.563Z,996.70
2019-03-12T05:00:14.684Z,996.75
2019-03-12T05:01:14.808Z,996.78
2019-03-12T05:02:14.930Z,996.80
2019-03-12T05:03:15.052Z,996.80
2019-03-12T05:04:15.177Z,996.77
2019-03-12T05:05:15.311Z,996.77
2019-03-12T05:06:15.429Z,996.75
2019-03-12T05:07:15.554Z,996.75
2019-03-12T05:08:15.674Z,996.72
2019-03-12T05:09:15.801Z,996.74
2019-03-12T05:10:15.927Z,996.74
2019-03-12T05:11:16.049Z,996.73
2019-03-12T05:12:16.174Z,996.78
2019-03-12T05:13:16.298Z,996.83
2019-03-12T05:14:16.419Z,996.83
2019-03-12T05:15:16.553Z,996.84
2019-03-12T05:16:16.672Z,996.80
2019-03-12T05:17:16.798Z,996.76
2019-03-12T05:18:16.922Z,996.74
2019-03-12T05:19:17.054Z,996.82
2019-03-12T05:20:17.168Z,996.75
2019-03-12T05:21:17.299Z,996.73
2019-03-12T05:22:17.411Z,996.74
2019-03-12T05:23:17.536Z,996.73
2019-03-12T05:24:17.663Z,996.78
2019-03-12T05:25:17.783Z,996.80
2019-03-12T05:26:17.909Z,996.77
2019-03-12T05:27:18.046Z,996.77
2019-03-12T05:28:18.157Z,996.74
2019-03-12T05:29:18.279Z,996.74
2019-03-12T05:30:18.406Z,996.71
2019-03-12T05:31:18.562Z,996.74
2019-03-12T05:32:18.645Z,996.67
2019-03-12T05:33:18.773Z,996.78
2019-03-12T05:34:18.894Z,996.71
2019-03-12T05:35:19.020Z,996.77
2019-03-12T05:36:19.166Z,996.76
2019-03-12T05:37:19.262Z,996.86
2019-03-12T05:38:19.396Z,996.81
2019-03-12T05:39:19.510Z,996.84
2019-03-12T05:40:19.640Z,996.82
2019-03-12T05:41:19.765Z,996.82
2019-03-12T05:42:19.897Z,996.78
2019-03-12T05:43:20.016Z,996.80
2019-03-12T05:44:20.139Z,996.79
2019-03-12T05:45:20.263Z,996.79
2019-03-12T05:46:20.385Z,996.83
2019-03-12T05:47:20.508Z,996.82
2019-03-12T05:48:20.630Z,996.82
2019-03-12T05:49:20.762Z,996.87
2019-03-12T05:50:20.879Z,996.83
2019-03-12T05:51:21.006Z,996.83
2019-03-12T05:52:21.131Z,996.85
2019-03-12T05:53:21.256Z,996.86
2019-03-12T05:54:21.375Z,996.89
2019-03-12T05:55:21.514Z,996.88
2019-03-12T05:56:21.636Z,996.86
2019-03-12T05:57:21.757Z,996.83
2019-03-12T05:58:21.887Z,996.88
2019-03-12T05:59:22.019Z,996.88
2019-03-12T06:00:22.127Z,996.84
2019-03-12T06:01:22.250Z,996.83
2019-03-12T06:02:22.383Z,996.83
2019-03-12T06:03:22.500Z,996.87
2019-03-12T06:04:22.629Z,996.80
2019-03-12T06:05:22.751Z,996.72
2019-03-12T06:06:22.871Z,996.70
2019-03-12T06:07:23.018Z,996.67
2019-03-12T06:08:23.137Z,996.72
2019-03-12T06:09:30.206Z,996.69
2019-03-12T06:10:23.390Z,996.67
2019-03-12T06:11:23.515Z,996.73
2019-03-12T06:12:23.654Z,996.72
2019-03-12T06:13:23.778Z,996.70
2019-03-12T06:14:23.882Z,996.72
2019-03-12T06:15:24.003Z,996.73
2019-03-12T06:16:24.131Z,996.71
2019-03-12T06:17:24.246Z,996.72
2019-03-12T06:18:24.378Z,996.71
2019-03-12T06:19:24.511Z,996.71
2019-03-12T06:20:24.631Z,996.66
2019-03-12T06:21:24.754Z,996.69
2019-03-12T06:22:24.879Z,996.64
2019-03-12T06:23:24.999Z,996.65
2019-03-12T06:24:25.127Z,996.65
2019-03-12T06:25:25.261Z,996.64
2019-03-12T06:26:25.379Z,996.63
2019-03-12T06:27:25.494Z,996.63
2019-03-12T06:28:25.622Z,996.65
2019-03-12T06:29:25.747Z,996.63
2019-03-12T06:30:26.119Z,996.65
2019-03-12T06:31:26.028Z,996.66
2019-03-12T06:32:26.152Z,996.65
2019-03-12T06:33:26.273Z,996.67
2019-03-12T06:34:26.403Z,996.67
2019-03-12T06:35:26.521Z,996.67
2019-03-12T06:36:26.646Z,996.63
2019-03-12T06:37:26.797Z,996.68
2019-03-12T06:38:26.920Z,996.63
2019-03-12T06:39:27.042Z,996.64
2019-03-12T06:40:27.164Z,996.60
2019-03-12T06:41:27.307Z,996.58
2019-03-12T06:42:27.427Z,996.57
2019-03-12T06:43:27.554Z,996.63
2019-03-12T06:44:27.678Z,996.58
2019-03-12T06:45:27.809Z,996.55
2019-03-12T06:46:27.931Z,996.59
2019-03-12T06:47:28.052Z,996.59
2019-03-12T06:48:28.175Z,996.59
2019-03-12T06:49:28.299Z,996.57
2019-03-12T06:50:28.439Z,996.55
2019-03-12T06:51:28.565Z,996.45
2019-03-12T06:52:28.693Z,996.50
2019-03-12T06:53:28.809Z,996.43
2019-03-12T06:54:28.935Z,996.38
2019-03-12T06:55:29.062Z,996.28
2019-03-12T06:56:29.191Z,996.31
2019-03-12T06:57:29.308Z,996.26
2019-03-12T06:58:29.463Z,996.22
2019-03-12T06:59:29.566Z,996.24
2019-03-12T07:00:29.690Z,996.27
2019-03-12T07:01:29.862Z,996.25
2019-03-12T07:02:29.975Z,996.24
2019-03-12T07:03:30.102Z,996.28
2019-03-12T07:04:30.221Z,996.22
2019-03-12T07:05:30.380Z,996.19
2019-03-12T07:06:30.500Z,996.25
2019-03-12T07:07:30.629Z,996.17
2019-03-12T07:08:30.764Z,996.26
2019-03-12T07:09:30.912Z,996.11
2019-03-12T07:10:31.024Z,996.14
2019-03-12T07:11:31.141Z,996.16
2019-03-12T07:12:31.304Z,996.18
2019-03-12T07:13:31.416Z,996.11
2019-03-12T07:14:31.538Z,996.11
2019-03-12T07:15:31.661Z,996.08
2019-03-12T07:16:31.814Z,996.12
2019-03-12T07:17:31.940Z,996.07
2019-03-12T07:18:32.057Z,996.07
2019-03-12T07:19:32.180Z,996.02
2019-03-12T07:20:32.322Z,996.01
2019-03-12T07:21:32.439Z,995.95
2019-03-12T07:22:32.567Z,995.96
2019-03-12T07:23:32.695Z,995.92
2019-03-12T07:24:32.832Z,995.91
2019-03-12T07:25:32.952Z,996.05
2019-03-12T07:26:33.089Z,995.99
2019-03-12T07:27:33.210Z,995.91
2019-03-12T07:28:33.346Z,995.81
2019-03-12T07:29:33.460Z,995.81
2019-03-12T07:30:33.585Z,995.79
2019-03-12T07:31:33.719Z,995.78
2019-03-12T07:32:33.842Z,995.74
2019-03-12T07:33:33.971Z,995.75
2019-03-12T07:34:36.840Z,995.73
2019-03-12T07:35:34.241Z,995.72
2019-03-12T07:36:34.375Z,995.70
2019-03-12T07:37:34.491Z,995.78
2019-03-12T07:38:34.609Z,995.70
2019-03-12T07:39:34.740Z,995.65
2019-03-12T07:40:34.865Z,995.63
2019-03-12T07:41:35.004Z,995.60
2019-03-12T07:42:35.120Z,995.64
2019-03-12T07:43:35.271Z,995.58
2019-03-12T07:44:35.394Z,995.54
2019-03-12T07:45:35.517Z,995.54
2019-03-12T07:46:35.669Z,995.50
2019-03-12T07:47:36.275Z,995.53
2019-03-12T07:48:35.912Z,995.57
2019-03-12T07:49:36.048Z,995.49
2019-03-12T07:50:36.164Z,995.47
2019-03-12T07:51:36.284Z,995.55
2019-03-12T07:52:36.410Z,995.48
2019-03-12T07:53:36.542Z,995.46
2019-03-12T07:54:36.674Z,995.50
2019-03-12T07:55:36.797Z,995.42
2019-03-12T07:56:36.923Z,995.40
2019-03-12T07:57:37.041Z,995.43
2019-03-12T07:58:37.177Z,995.44
2019-03-12T07:59:37.361Z,995.38
2019-03-12T08:00:37.426Z,995.36
2019-03-12T08:01:37.548Z,995.33
2019-03-12T08:02:37.681Z,995.32
2019-03-12T08:03:37.811Z,995.33
2019-03-12T08:04:37.924Z,995.26
2019-03-12T08:05:38.044Z,995.33
2019-03-12T08:06:38.200Z,995.25
2019-03-12T08:07:38.316Z,995.29
2019-03-12T08:08:38.433Z,995.21
2019-03-12T08:09:38.559Z,995.18
2019-03-12T08:10:38.684Z,995.34
2019-03-12T08:11:38.822Z,995.18
2019-03-12T08:12:38.961Z,995.23
2019-03-12T08:13:39.081Z,995.14
2019-03-12T08:14:39.205Z,995.23
2019-03-12T08:15:39.334Z,995.09
2019-03-12T08:16:39.488Z,995.20
2019-03-12T08:17:39.601Z,995.01
2019-03-12T08:18:39.721Z,995.04
2019-03-12T08:19:39.847Z,995.06
2019-03-12T08:20:39.993Z,994.94
2019-03-12T08:21:40.114Z,994.91
2019-03-12T08:22:40.246Z,994.87
2019-03-12T08:23:40.370Z,994.88
2019-03-12T08:24:40.594Z,994.83
2019-03-12T08:25:43.788Z,995.02
2019-03-12T08:26:40.774Z,994.93
2019-03-12T08:27:40.886Z,994.80
2019-03-12T08:28:41.034Z,994.83
2019-03-12T08:29:41.150Z,994.75
2019-03-12T08:30:41.268Z,994.81
2019-03-12T08:31:41.398Z,994.76
2019-03-12T08:32:41.544Z,994.74
2019-03-12T08:33:50.606Z,994.69
2019-03-12T08:34:41.893Z,994.71
2019-03-12T08:35:41.975Z,994.71
2019-03-12T08:36:42.194Z,994.72
2019-03-12T08:37:42.210Z,994.79
2019-03-12T08:38:42.340Z,994.73
2019-03-12T08:39:42.489Z,994.78
2019-03-12T08:40:52.055Z,994.66
2019-03-12T08:41:42.776Z,994.63
2019-03-12T08:42:53.966Z,994.64
2019-03-12T08:43:43.041Z,994.98
2019-03-12T08:44:43.166Z,994.65
2019-03-12T08:45:45.368Z,994.75
2019-03-12T08:46:43.434Z,994.64
2019-03-12T08:47:43.556Z,994.76
2019-03-12T08:48:43.689Z,994.71
2019-03-12T08:49:43.813Z,994.58
2019-03-12T08:50:43.978Z,994.65
2019-03-12T08:51:44.102Z,994.65
2019-03-12T08:52:44.233Z,994.63
2019-03-12T08:53:44.370Z,994.58
2019-03-12T08:54:53.782Z,994.52
2019-03-12T08:55:44.620Z,994.58
2019-03-12T08:56:44.746Z,994.51
2019-03-12T08:57:44.872Z,994.46
2019-03-12T08:58:44.999Z,994.47
2019-03-12T08:59:45.150Z,994.42
2019-03-12T09:00:45.277Z,994.50
2019-03-12T09:01:47.563Z,994.51
2019-03-12T09:02:45.523Z,994.44
2019-03-12T09:03:45.648Z,994.43
2019-03-12T09:04:45.773Z,994.44
2019-03-12T09:05:45.913Z,994.37
2019-03-12T09:06:46.038Z,994.48
2019-03-12T09:07:46.163Z,994.35
2019-03-12T09:08:46.285Z,994.33
2019-03-12T09:09:46.421Z,994.35
2019-03-12T09:10:46.546Z,994.35
2019-03-12T09:11:46.663Z,994.28
2019-03-12T09:12:46.796Z,994.30
2019-03-12T09:13:46.919Z,994.30
2019-03-12T09:14:47.076Z,994.26
2019-03-12T09:15:47.200Z,994.19
2019-03-12T09:16:47.324Z,994.22
2019-03-12T09:17:47.491Z,994.16
2019-03-12T09:18:47.602Z,994.25
2019-03-12T09:19:47.715Z,994.18
2019-03-12T09:20:47.855Z,994.21
2019-03-12T09:21:47.965Z,994.42
2019-03-12T09:22:48.090Z,994.21
2019-03-12T09:23:48.221Z,994.17
2019-03-12T09:24:48.354Z,994.11
2019-03-12T09:25:48.483Z,994.11
2019-03-12T09:26:48.610Z,994.22
2019-03-12T09:27:48.741Z,994.04
2019-03-12T09:28:48.861Z,994.07
2019-03-12T09:29:48.975Z,994.12
2019-03-12T09:30:49.108Z,994.15
2019-03-12T09:31:49.230Z,994.03
2019-03-12T09:32:49.378Z,993.96
2019-03-12T09:33:49.495Z,994.02
2019-03-12T09:34:49.616Z,993.95
2019-03-12T09:35:49.743Z,993.90
2019-03-12T09:36:49.893Z,993.96
2019-03-12T09:37:50.019Z,993.84
2019-03-12T09:38:50.149Z,993.92
2019-03-12T09:39:50.269Z,993.80
2019-03-12T09:40:50.395Z,993.80
2019-03-12T09:41:50.509Z,993.88
2019-03-12T09:42:50.638Z,993.78
2019-03-12T09:43:50.787Z,993.88
2019-03-12T09:44:50.895Z,993.96
2019-03-12T09:45:51.017Z,993.73
2019-03-12T09:46:51.143Z,993.84
2019-03-12T09:47:51.272Z,993.70
2019-03-12T09:48:51.418Z,993.77
2019-03-12T09:49:51.534Z,993.63
2019-03-12T09:50:51.668Z,993.66
2019-03-12T09:51:51.787Z,993.63
2019-03-12T09:52:51.940Z,993.68
2019-03-12T09:53:52.058Z,993.63
2019-03-12T09:54:52.196Z,993.58
2019-03-12T09:55:52.322Z,993.63
2019-03-12T09:56:52.477Z,993.63
2019-03-12T09:57:52.598Z,993.58
2019-03-12T09:58:52.723Z,993.58
2019-03-12T09:59:52.849Z,993.83
2019-03-12T10:00:52.984Z,993.77
2019-03-12T10:01:53.134Z,993.75
2019-03-12T10:02:53.256Z,993.73
2019-03-12T10:03:53.462Z,993.61
2019-03-12T10:04:53.502Z,993.62
2019-03-12T10:05:53.627Z,993.35
2019-03-12T10:06:53.751Z,993.41
2019-03-12T10:07:53.882Z,993.44
2019-03-12T10:08:54.019Z,993.41
2019-03-12T10:09:54.130Z,993.54
2019-03-12T10:10:54.258Z,993.44
2019-03-12T10:11:54.389Z,993.44
2019-03-12T10:12:54.527Z,993.43
2019-03-12T10:13:54.687Z,993.34
2019-03-12T10:14:54.808Z,993.57
2019-03-12T10:15:54.937Z,993.21
2019-03-12T10:16:55.067Z,993.27
2019-03-12T10:17:55.192Z,993.19
2019-03-12T10:18:55.329Z,993.10
2019-03-12T10:19:55.444Z,993.09
2019-03-12T10:20:55.569Z,993.19
2019-03-12T10:21:55.697Z,993.05
2019-03-12T10:22:55.831Z,993.12
2019-03-12T10:23:55.955Z,993.08
2019-03-12T10:24:56.078Z,993.30
2019-03-12T10:25:56.225Z,993.17
2019-03-12T10:26:56.341Z,992.94
2019-03-12T10:27:56.476Z,992.95
2019-03-12T10:28:56.600Z,992.95
2019-03-12T10:29:56.731Z,992.96
2019-03-12T10:30:56.864Z,992.83
2019-03-12T10:31:56.988Z,992.90
2019-03-12T10:32:57.116Z,992.95
2019-03-12T10:33:57.244Z,992.98
2019-03-12T10:34:57.375Z,993.00
2019-03-12T10:35:57.598Z,992.88
2019-03-12T10:37:10.975Z,992.89
2019-03-12T10:37:57.768Z,992.87
2019-03-12T10:38:57.899Z,992.92
2019-03-12T10:39:58.017Z,992.99
2019-03-12T10:40:58.155Z,992.83
2019-03-12T10:41:58.294Z,992.87
2019-03-12T10:42:58.440Z,992.75
2019-03-12T10:43:58.564Z,992.64
2019-03-12T10:44:58.686Z,992.71
2019-03-12T10:45:58.824Z,992.68
2019-03-12T10:46:58.945Z,992.61
2019-03-12T10:47:59.069Z,992.79
2019-03-12T10:48:59.206Z,992.58
2019-03-12T10:49:59.341Z,992.82
2019-03-12T10:50:59.460Z,992.79
2019-03-12T10:51:59.585Z,992.60
2019-03-12T10:52:59.713Z,992.74
2019-03-12T10:53:59.844Z,992.61
2019-03-12T10:55:12.407Z,992.61
2019-03-12T10:56:00.099Z,992.58
2019-03-12T10:57:00.235Z,992.50
2019-03-12T10:58:00.371Z,992.44
2019-03-12T10:59:00.487Z,992.53
2019-03-12T11:00:00.646Z,992.47
2019-03-12T11:01:00.749Z,992.42
2019-03-12T11:02:00.872Z,992.24
2019-03-12T11:03:01.001Z,992.43
2019-03-12T11:04:01.136Z,992.44
2019-03-12T11:05:01.288Z,992.22
2019-03-12T11:06:01.425Z,992.19
2019-03-12T11:07:01.545Z,992.18
2019-03-12T11:08:01.667Z,992.10
2019-03-12T11:09:01.834Z,992.09
2019-03-12T11:10:01.946Z,992.15
2019-03-12T11:11:02.080Z,992.07
2019-03-12T11:12:02.200Z,992.20
2019-03-12T11:13:02.365Z,992.08
2019-03-12T11:14:02.524Z,992.08
2019-03-12T11:15:02.616Z,992.03
2019-03-12T11:16:02.739Z,992.24
2019-03-12T11:17:02.892Z,991.86
2019-03-12T11:18:03.011Z,991.97
2019-03-12T11:19:03.134Z,992.08
2019-03-12T11:20:03.264Z,992.04
2019-03-12T11:21:03.400Z,991.96
2019-03-12T11:22:03.547Z,991.85
2019-03-12T11:23:03.662Z,991.97
2019-03-12T11:24:03.800Z,991.83
2019-03-12T11:25:03.920Z,991.81
2019-03-12T11:26:04.052Z,991.71
2019-03-12T11:27:04.175Z,991.63
2019-03-12T11:28:04.306Z,991.61
2019-03-12T11:29:04.460Z,991.58
2019-03-12T11:30:04.575Z,991.69
2019-03-12T11:31:04.701Z,991.59
2019-03-12T11:32:04.832Z,991.64
2019-03-12T11:33:04.960Z,991.48
2019-03-12T11:34:05.092Z,991.49
2019-03-12T11:35:05.221Z,991.49
2019-03-12T11:36:05.351Z,991.53
2019-03-12T11:37:05.475Z,991.49
2019-03-12T11:38:05.625Z,991.38
2019-03-12T11:39:05.754Z,991.43
2019-03-12T11:40:05.970Z,991.36
2019-03-12T11:41:06.049Z,991.47
2019-03-12T11:42:06.469Z,991.41
2019-03-12T11:43:06.293Z,991.53
2019-03-12T11:44:06.422Z,991.26
2019-03-12T11:45:13.641Z,991.54
2019-03-12T11:46:06.757Z,991.38
2019-03-12T11:47:06.806Z,991.56
2019-03-12T11:48:06.947Z,991.59
2019-03-12T11:49:07.069Z,991.47
2019-03-12T11:50:07.199Z,991.33
2019-03-12T11:51:07.347Z,991.44
2019-03-12T11:52:07.474Z,991.20
2019-03-12T11:53:07.760Z,991.17
2019-03-12T11:54:07.787Z,991.21
2019-03-12T11:55:07.876Z,991.30
2019-03-12T11:56:08.008Z,991.24
2019-03-12T11:57:08.200Z,991.13
2019-03-12T11:58:08.313Z,991.19
2019-03-12T11:59:08.421Z,991.05
2019-03-12T12:00:08.565Z,991.23
2019-03-12T12:01:08.724Z,991.04
2019-03-12T12:02:08.814Z,991.00
2019-03-12T12:03:08.982Z,991.05
2019-03-12T12:04:09.105Z,991.10
2019-03-12T12:05:09.248Z,991.15
2019-03-12T12:06:09.765Z,990.84
2019-03-12T12:07:09.516Z,990.85
2019-03-12T12:08:09.695Z,990.88
2019-03-12T12:09:09.831Z,990.83
2019-03-12T12:10:09.915Z,990.81
2019-03-12T12:11:10.038Z,990.75
2019-03-12T12:12:10.174Z,990.85
2019-03-12T12:13:10.300Z,990.64
2019-03-12T12:14:10.470Z,990.75
2019-03-12T12:15:10.570Z,990.69
2019-03-12T12:16:10.705Z,990.70
2019-03-12T12:17:10.865Z,990.77
2019-03-12T12:18:10.965Z,990.51
2019-03-12T12:19:11.095Z,990.42
2019-03-12T12:20:11.255Z,990.44
2019-03-12T12:21:11.380Z,990.53
2019-03-12T12:22:11.503Z,990.42
2019-03-12T12:23:11.640Z,990.48
2019-03-12T12:24:11.770Z,990.60
2019-03-12T12:25:11.898Z,990.30
2019-03-12T12:26:12.020Z,990.30
2019-03-12T12:27:12.150Z,990.36
2019-03-12T12:28:12.281Z,990.32
2019-03-12T12:29:12.406Z,990.25
2019-03-12T12:30:12.538Z,990.25